Terminal Aerodrome Forecast
Issued by NWS Omaha/Valley, NE

Home | Current Version | Previous Version | Text Only | Print | Product List | Glossary Off
Versions: 1 2 3 4 5 6 7 8 9 10 11 12 13 14 15 16 17 18 19 20 21 22 23 24 25 26 27 28 29 30 31 32 33 34 35 36 37 38 39 40 41 42 43 44

646
FTUS43 KOAX 121504 AAA
TAFOFK
TAF AMD
KOFK 121504Z 1215/1312 27006KT P6SM BKN029
      TEMPO 1215/1217 BKN035
     FM121700 26009KT P6SM SCT250
     FM130900 28012KT P6SM SCT250
     FM131000 30017G22KT P6SM SCT050 BKN120=

USA.gov is the U.S. government's official web portal to all federal, state and local government web resources and services.